createdAt,value
2023-04-16T00:02:13.128Z,100.00
2023-04-16T00:04:40.130Z,100.00
2023-04-16T00:07:07.680Z,100.00
2023-04-16T00:09:34.454Z,100.00
2023-04-16T00:12:01.282Z,100.00
2023-04-16T00:14:30.093Z,100.00
2023-04-16T00:16:56.618Z,100.00
2023-04-16T00:19:23.725Z,100.00
2023-04-16T00:21:50.289Z,100.00
2023-04-16T00:24:17.153Z,100.00
2023-04-16T00:26:45.044Z,100.00
2023-04-16T00:29:12.185Z,100.00
2023-04-16T00:31:38.823Z,100.00
2023-04-16T00:34:05.760Z,100.00
2023-04-16T00:36:32.254Z,100.00
2023-04-16T00:38:59.156Z,100.00
2023-04-16T00:41:26.754Z,100.00
2023-04-16T00:43:57.711Z,100.00
2023-04-16T00:46:26.304Z,100.00
2023-04-16T00:48:54.666Z,100.00
2023-04-16T00:51:22.165Z,100.00
2023-04-16T00:53:49.059Z,100.00
2023-04-16T00:56:17.001Z,100.00
2023-04-16T00:58:44.507Z,100.00
2023-04-16T01:01:14.127Z,100.00
2023-04-16T01:03:45.937Z,100.00
2023-04-16T01:06:13.387Z,100.00
2023-04-16T01:08:40.610Z,100.00
2023-04-16T01:11:07.293Z,100.00
2023-04-16T01:13:39.083Z,100.00
2023-04-16T01:16:11.425Z,100.00
2023-04-16T01:18:38.876Z,100.00
2023-04-16T01:21:06.257Z,100.00
2023-04-16T01:23:33.371Z,100.00
2023-04-16T01:25:59.963Z,100.00
2023-04-16T01:28:27.723Z,100.00
2023-04-16T01:30:55.399Z,100.00
2023-04-16T01:33:54.805Z,100.00
2023-04-16T01:36:22.391Z,100.00
2023-04-16T01:38:49.850Z,100.00
2023-04-16T01:41:16.555Z,100.00
2023-04-16T01:43:43.140Z,100.00
2023-04-16T01:46:20.611Z,100.00
2023-04-16T01:48:48.296Z,100.00
2023-04-16T01:51:14.992Z,100.00
2023-04-16T01:53:41.618Z,100.00
2023-04-16T01:56:08.189Z,100.00
2023-04-16T01:58:36.321Z,100.00
2023-04-16T02:01:03.688Z,100.00
2023-04-16T02:03:31.292Z,100.00
2023-04-16T02:05:58.165Z,100.00
2023-04-16T02:08:26.080Z,100.00
2023-04-16T02:10:53.150Z,100.00
2023-04-16T02:13:19.901Z,100.00
2023-04-16T02:15:48.960Z,100.00
2023-04-16T02:18:19.834Z,100.00
2023-04-16T02:20:47.917Z,100.00
2023-04-16T02:23:15.804Z,100.00
2023-04-16T02:25:45.021Z,100.00
2023-04-16T02:28:15.535Z,100.00
2023-04-16T02:30:43.839Z,100.00
2023-04-16T02:33:12.659Z,100.00
2023-04-16T02:35:46.347Z,100.00
2023-04-16T02:38:12.905Z,100.00
2023-04-16T02:40:39.591Z,100.00
2023-04-16T02:43:06.610Z,100.00
2023-04-16T02:45:33.212Z,100.00
2023-04-16T02:48:00.758Z,100.00
2023-04-16T02:50:32.555Z,100.00
2023-04-16T02:52:59.286Z,100.00
2023-04-16T02:55:26.720Z,100.00
2023-04-16T02:57:54.462Z,100.00
2023-04-16T03:00:21.118Z,100.00
2023-04-16T03:02:47.867Z,100.00
2023-04-16T03:05:14.710Z,100.00
2023-04-16T03:07:41.341Z,100.00
2023-04-16T03:10:08.969Z,100.00
2023-04-16T03:12:36.787Z,100.00
2023-04-16T03:15:07.095Z,100.00
2023-04-16T03:17:33.924Z,100.00
2023-04-16T03:20:00.865Z,100.00
2023-04-16T03:22:27.375Z,100.00
2023-04-16T03:24:53.937Z,100.00
2023-04-16T03:27:20.476Z,100.00
2023-04-16T03:29:50.216Z,100.00
2023-04-16T03:32:17.351Z,100.00
2023-04-16T03:34:44.296Z,100.00
2023-04-16T03:37:12.038Z,100.00
2023-04-16T03:39:38.886Z,100.00
2023-04-16T03:42:05.496Z,100.00
2023-04-16T03:44:33.481Z,100.00
2023-04-16T03:47:01.300Z,100.00
2023-04-16T03:49:27.993Z,100.00
2023-04-16T03:51:55.689Z,100.00
2023-04-16T03:54:22.994Z,100.00
2023-04-16T03:56:57.017Z,100.00
2023-04-16T03:59:25.256Z,100.00
2023-04-16T04:01:52.023Z,100.00
2023-04-16T04:04:18.745Z,100.00
2023-04-16T04:06:46.541Z,100.00
2023-04-16T04:09:16.279Z,100.00
2023-04-16T04:11:44.296Z,100.00
2023-04-16T04:14:10.978Z,100.00
2023-04-16T04:16:37.637Z,100.00
2023-04-16T04:19:04.290Z,100.00
2023-04-16T04:21:31.639Z,100.00
2023-04-16T04:23:58.328Z,100.00
2023-04-16T04:26:25.007Z,100.00
2023-04-16T04:28:51.619Z,100.00
2023-04-16T04:31:18.910Z,100.00
2023-04-16T04:33:45.813Z,100.00
2023-04-16T04:36:12.423Z,100.00
2023-04-16T04:38:39.121Z,100.00
2023-04-16T04:41:05.655Z,100.00
2023-04-16T04:43:35.633Z,100.00
2023-04-16T04:46:02.838Z,100.00
2023-04-16T04:48:34.766Z,100.00
2023-04-16T04:51:03.476Z,100.00
2023-04-16T04:53:31.388Z,100.00
2023-04-16T04:56:05.488Z,100.00
2023-04-16T04:58:42.665Z,100.00
2023-04-16T05:01:09.366Z,100.00
2023-04-16T05:03:36.264Z,100.00
2023-04-16T05:06:03.229Z,100.00
2023-04-16T05:08:29.752Z,100.00
2023-04-16T05:10:57.101Z,100.00
2023-04-16T05:13:24.043Z,100.00
2023-04-16T05:15:50.591Z,100.00
2023-04-16T05:18:17.056Z,100.00
2023-04-16T05:20:43.930Z,100.00
2023-04-16T05:23:10.458Z,100.00
2023-04-16T05:25:37.007Z,100.00
2023-04-16T05:28:03.684Z,100.00
2023-04-16T05:30:30.635Z,100.00
2023-04-16T05:32:57.818Z,100.00
2023-04-16T05:35:24.395Z,100.00
2023-04-16T05:37:51.164Z,100.00
2023-04-16T05:40:18.121Z,100.00
2023-04-16T05:42:44.632Z,100.00
2023-04-16T05:45:11.439Z,100.00
2023-04-16T05:47:38.334Z,100.00
2023-04-16T05:50:05.495Z,100.00
2023-04-16T05:52:32.333Z,100.00
2023-04-16T05:55:01.880Z,100.00
2023-04-16T05:57:29.254Z,100.00
2023-04-16T05:59:55.791Z,100.00
2023-04-16T06:02:22.664Z,100.00
2023-04-16T06:04:49.874Z,100.00
2023-04-16T06:07:16.576Z,100.00
2023-04-16T06:09:43.182Z,100.00
2023-04-16T06:12:09.782Z,100.00
2023-04-16T06:14:36.294Z,100.00
2023-04-16T06:17:03.879Z,100.00
2023-04-16T06:19:30.492Z,100.00
2023-04-16T06:21:57.936Z,100.00
2023-04-16T06:24:24.548Z,100.00
2023-04-16T06:26:51.354Z,100.00
2023-04-16T06:29:18.090Z,100.00
2023-04-16T06:31:44.822Z,100.00
2023-04-16T06:34:11.513Z,100.00
2023-04-16T06:36:38.239Z,100.00
2023-04-16T06:39:05.127Z,100.00
2023-04-16T06:41:31.978Z,100.00
2023-04-16T06:43:58.546Z,100.00
2023-04-16T06:46:25.244Z,100.00
2023-04-16T06:48:52.010Z,100.00
2023-04-16T06:51:19.126Z,100.00
2023-04-16T06:53:45.769Z,100.00
2023-04-16T06:56:12.341Z,100.00
2023-04-16T06:58:39.252Z,100.00
2023-04-16T07:01:05.985Z,100.00
2023-04-16T07:03:33.756Z,100.00
2023-04-16T07:06:01.750Z,100.00
2023-04-16T07:08:28.519Z,100.00
2023-04-16T07:10:55.417Z,100.00
2023-04-16T07:13:22.125Z,100.00
2023-04-16T07:15:48.909Z,100.00
2023-04-16T07:18:16.542Z,100.00
2023-04-16T07:20:43.377Z,100.00
2023-04-16T07:23:10.533Z,100.00
2023-04-16T07:25:37.832Z,100.00
2023-04-16T07:28:04.692Z,100.00
2023-04-16T07:30:34.223Z,100.00
2023-04-16T07:33:02.955Z,100.00
2023-04-16T07:35:30.716Z,100.00
2023-04-16T07:37:57.709Z,100.00
2023-04-16T07:40:24.726Z,100.00
2023-04-16T07:42:51.507Z,100.00
2023-04-16T07:45:18.885Z,100.00
2023-04-16T07:47:46.025Z,100.00
2023-04-16T07:50:12.953Z,100.00
2023-04-16T07:52:41.586Z,100.00
2023-04-16T07:55:09.270Z,100.00
2023-04-16T07:57:36.095Z,100.00
2023-04-16T08:00:05.192Z,100.00
2023-04-16T08:02:39.799Z,100.00
2023-04-16T08:05:07.929Z,100.00
2023-04-16T08:07:34.932Z,100.00
2023-04-16T08:10:02.448Z,100.00
2023-04-16T08:12:32.147Z,100.00
2023-04-16T08:14:59.169Z,100.00
2023-04-16T08:17:26.397Z,100.00
2023-04-16T08:19:53.231Z,100.00
2023-04-16T08:22:20.867Z,100.00
2023-04-16T08:24:48.335Z,100.00
2023-04-16T08:27:19.923Z,100.00
2023-04-16T08:29:48.148Z,100.00
2023-04-16T08:32:15.220Z,100.00
2023-04-16T08:34:42.614Z,100.00
2023-04-16T08:37:09.828Z,100.00
2023-04-16T08:39:36.733Z,100.00
2023-04-16T08:42:06.066Z,100.00
2023-04-16T08:44:37.375Z,100.00
2023-04-16T08:47:09.361Z,100.00
2023-04-16T08:49:43.132Z,100.00
2023-04-16T08:52:20.136Z,100.00
2023-04-16T08:55:01.438Z,100.00
2023-04-16T08:57:44.587Z,100.00
2023-04-16T09:00:11.976Z,100.00
2023-04-16T09:02:39.389Z,100.00
2023-04-16T09:05:16.999Z,100.00
2023-04-16T09:07:48.322Z,100.00
2023-04-16T09:10:20.327Z,100.00
2023-04-16T09:12:49.710Z,100.00
2023-04-16T09:15:16.339Z,100.00
2023-04-16T09:17:42.991Z,100.00
2023-04-16T09:20:10.885Z,100.00
2023-04-16T09:22:37.839Z,100.00
2023-04-16T09:25:04.861Z,100.00
2023-04-16T09:27:31.998Z,100.00
2023-04-16T09:29:58.983Z,100.00
2023-04-16T09:32:27.740Z,100.00
2023-04-16T09:34:58.699Z,100.00
2023-04-16T09:37:29.634Z,100.00
2023-04-16T09:40:02.158Z,100.00
2023-04-16T09:42:31.765Z,100.00
2023-04-16T09:45:01.392Z,100.00
2023-04-16T09:47:45.359Z,100.00
2023-04-16T09:50:18.464Z,100.00
2023-04-16T09:52:49.504Z,100.00
2023-04-16T09:55:16.221Z,100.00
2023-04-16T09:57:42.824Z,100.00
2023-04-16T10:00:10.782Z,100.00
2023-04-16T10:02:41.931Z,100.00
2023-04-16T10:05:09.153Z,100.00
2023-04-16T10:07:37.540Z,100.00
2023-04-16T10:10:04.854Z,100.00
2023-04-16T10:12:32.975Z,100.00
2023-04-16T10:15:00.009Z,100.00
2023-04-16T10:17:30.030Z,100.00
2023-04-16T10:19:58.402Z,100.00
2023-04-16T10:22:26.328Z,100.00
2023-04-16T10:24:53.793Z,100.00
2023-04-16T10:27:20.672Z,100.00
2023-04-16T10:29:48.928Z,100.00
2023-04-16T10:32:18.405Z,100.00
2023-04-16T10:34:47.762Z,100.00
2023-04-16T10:37:17.956Z,100.00
2023-04-16T10:39:45.208Z,100.00
2023-04-16T10:42:13.123Z,100.00
2023-04-16T10:44:44.302Z,100.00
2023-04-16T10:47:13.619Z,100.00
2023-04-16T10:49:41.538Z,100.00
2023-04-16T10:52:13.673Z,100.00
2023-04-16T10:54:41.620Z,100.00
2023-04-16T10:57:16.077Z,100.00
2023-04-16T10:59:44.011Z,100.00
2023-04-16T11:02:17.407Z,100.00
2023-04-16T11:04:48.980Z,100.00
2023-04-16T11:07:18.940Z,100.00
2023-04-16T11:09:50.981Z,100.00
2023-04-16T11:12:35.846Z,100.00
2023-04-16T11:15:08.944Z,100.00
2023-04-16T11:17:43.964Z,100.00
2023-04-16T11:20:21.515Z,100.00
2023-04-16T11:22:54.951Z,100.00
2023-04-16T11:25:29.725Z,100.00
2023-04-16T11:27:59.094Z,100.00
2023-04-16T11:30:34.608Z,100.00
2023-04-16T11:33:09.431Z,100.00
2023-04-16T11:35:36.065Z,100.00
2023-04-16T11:38:02.822Z,100.00
2023-04-16T11:40:31.701Z,100.00
2023-04-16T11:43:03.897Z,100.00
2023-04-16T11:45:31.394Z,100.00
2023-04-16T11:47:58.524Z,100.00
2023-04-16T11:50:27.473Z,100.00
2023-04-16T11:53:03.685Z,100.00
2023-04-16T11:55:31.037Z,100.00
2023-04-16T11:57:57.823Z,100.00
2023-04-16T12:00:25.084Z,100.00
2023-04-16T12:02:53.986Z,100.00
2023-04-16T12:05:38.926Z,100.00
2023-04-16T12:08:11.503Z,100.00
2023-04-16T12:10:54.042Z,100.00
2023-04-16T12:13:20.844Z,100.00
2023-04-16T12:15:49.662Z,100.00
2023-04-16T12:18:17.549Z,100.00
2023-04-16T12:20:45.261Z,100.00
2023-04-16T12:23:25.193Z,100.00
2023-04-16T12:25:52.668Z,100.00
2023-04-16T12:28:34.915Z,100.00
2023-04-16T12:31:03.275Z,100.00
2023-04-16T12:33:30.199Z,100.00
2023-04-16T12:35:57.363Z,100.00
2023-04-16T12:38:25.446Z,99.72
2023-04-16T12:40:52.708Z,99.26
2023-04-16T12:43:21.372Z,98.50
2023-04-16T12:45:48.589Z,97.13
2023-04-16T12:48:15.512Z,96.54
2023-04-16T12:50:44.111Z,94.65
2023-04-16T12:53:11.775Z,93.41
2023-04-16T12:55:38.469Z,93.29
2023-04-16T12:58:05.368Z,92.57
2023-04-16T13:00:32.679Z,89.81
2023-04-16T13:02:59.818Z,91.10
2023-04-16T13:05:27.079Z,89.79
2023-04-16T13:07:54.052Z,91.21
2023-04-16T13:10:23.362Z,92.48
2023-04-16T13:12:50.320Z,92.28
2023-04-16T13:15:17.231Z,90.91
2023-04-16T13:17:43.889Z,91.38
2023-04-16T13:20:11.323Z,90.50
2023-04-16T13:22:42.624Z,90.18
2023-04-16T13:25:09.925Z,91.06
2023-04-16T13:27:37.020Z,90.21
2023-04-16T13:30:04.691Z,89.26
2023-04-16T13:32:31.756Z,87.38
2023-04-16T13:35:01.892Z,88.36
2023-04-16T13:37:28.733Z,87.46
2023-04-16T13:39:56.545Z,87.06
2023-04-16T13:42:23.790Z,86.42
2023-04-16T13:44:53.005Z,85.90
2023-04-16T13:47:19.760Z,84.73
2023-04-16T13:49:50.445Z,85.33
2023-04-16T13:52:20.122Z,86.15
2023-04-16T13:54:46.909Z,85.33
2023-04-16T13:57:21.996Z,84.54
2023-04-16T13:59:48.820Z,86.63
2023-04-16T14:02:15.722Z,86.79
2023-04-16T14:04:42.562Z,86.46
2023-04-16T14:07:09.460Z,86.98
2023-04-16T14:09:36.483Z,87.36
2023-04-16T14:12:03.712Z,86.29
2023-04-16T14:14:30.802Z,84.77
2023-04-16T14:17:01.588Z,84.80
2023-04-16T14:19:28.671Z,85.69
2023-04-16T14:21:55.541Z,86.93
2023-04-16T14:24:22.352Z,85.92
2023-04-16T14:26:49.020Z,85.28
2023-04-16T14:29:17.113Z,83.66
2023-04-16T14:31:43.817Z,83.01
2023-04-16T14:34:11.269Z,83.67
2023-04-16T14:36:39.475Z,82.57
2023-04-16T14:39:07.451Z,82.77
2023-04-16T14:41:35.160Z,80.77
2023-04-16T14:44:04.099Z,80.09
2023-04-16T14:46:33.536Z,81.23
2023-04-16T14:49:01.182Z,82.39
2023-04-16T14:51:29.288Z,81.23
2023-04-16T14:53:56.377Z,82.02
2023-04-16T14:56:23.317Z,81.63
2023-04-16T14:58:50.272Z,82.29
2023-04-16T15:01:17.630Z,82.08
2023-04-16T15:03:44.808Z,82.20
2023-04-16T15:06:13.832Z,82.37
2023-04-16T15:08:41.381Z,83.98
2023-04-16T15:11:08.145Z,82.96
2023-04-16T15:13:35.448Z,81.94
2023-04-16T15:16:07.547Z,81.59
2023-04-16T15:18:36.669Z,81.32
2023-04-16T15:21:04.498Z,81.21
2023-04-16T15:23:33.535Z,81.92
2023-04-16T15:26:00.193Z,81.27
2023-04-16T15:28:27.083Z,81.39
2023-04-16T15:30:54.096Z,82.02
2023-04-16T15:33:21.897Z,82.64
2023-04-16T15:35:51.738Z,82.56
2023-04-16T15:38:21.242Z,84.00
2023-04-16T15:40:48.162Z,82.88
2023-04-16T15:43:16.125Z,82.33
2023-04-16T15:45:44.010Z,82.28
2023-04-16T15:48:11.037Z,83.42
2023-04-16T15:50:38.147Z,83.97
2023-04-16T15:53:05.350Z,83.78
2023-04-16T15:55:32.190Z,84.17
2023-04-16T15:57:58.995Z,84.70
2023-04-16T16:00:26.220Z,84.94
2023-04-16T16:02:53.086Z,85.60
2023-04-16T16:05:19.850Z,86.16
2023-04-16T16:07:46.820Z,85.87
2023-04-16T16:10:13.749Z,85.63
2023-04-16T16:12:43.373Z,86.49
2023-04-16T16:15:11.512Z,86.27
2023-04-16T16:17:39.109Z,85.95
2023-04-16T16:20:09.498Z,85.91
2023-04-16T16:22:38.196Z,86.23
2023-04-16T16:25:05.740Z,86.25
2023-04-16T16:27:37.953Z,86.17
2023-04-16T16:30:07.172Z,85.18
2023-04-16T16:32:40.950Z,85.09
2023-04-16T16:35:08.976Z,84.34
2023-04-16T16:37:38.251Z,85.05
2023-04-16T16:40:05.765Z,85.11
2023-04-16T16:42:32.518Z,85.63
2023-04-16T16:45:05.171Z,85.79
2023-04-16T16:47:33.251Z,85.31
2023-04-16T16:50:03.010Z,86.17
2023-04-16T16:52:30.548Z,86.88
2023-04-16T16:54:58.105Z,87.54
2023-04-16T16:57:27.025Z,87.95
2023-04-16T16:59:54.869Z,87.27
2023-04-16T17:02:23.360Z,87.91
2023-04-16T17:04:51.803Z,87.93
2023-04-16T17:07:19.105Z,88.20
2023-04-16T17:09:46.265Z,87.15
2023-04-16T17:12:13.146Z,87.63
2023-04-16T17:14:39.980Z,86.42
2023-04-16T17:17:06.918Z,86.28
2023-04-16T17:19:34.126Z,86.26
2023-04-16T17:22:01.292Z,86.56
2023-04-16T17:24:28.940Z,86.69
2023-04-16T17:26:55.817Z,87.31
2023-04-16T17:29:26.165Z,86.55
2023-04-16T17:31:53.726Z,87.33
2023-04-16T17:34:21.925Z,87.61
2023-04-16T17:36:50.740Z,87.90
2023-04-16T17:39:17.854Z,87.88
2023-04-16T17:41:45.045Z,87.06
2023-04-16T17:44:12.931Z,87.37
2023-04-16T17:46:41.097Z,87.32
2023-04-16T17:49:09.111Z,87.16
2023-04-16T17:51:36.994Z,87.56
2023-04-16T17:54:07.144Z,87.45
2023-04-16T17:56:35.566Z,87.37
2023-04-16T17:59:03.081Z,88.16
2023-04-16T18:01:30.018Z,87.85
2023-04-16T18:03:56.814Z,88.00
2023-04-16T18:06:23.704Z,88.00
2023-04-16T18:08:50.576Z,88.71
2023-04-16T18:11:17.404Z,89.17
2023-04-16T18:13:44.399Z,89.31
2023-04-16T18:16:17.601Z,90.10
2023-04-16T18:18:47.191Z,89.52
2023-04-16T18:21:13.940Z,90.02
2023-04-16T18:23:41.190Z,90.01
2023-04-16T18:26:09.445Z,90.03
2023-04-16T18:28:39.266Z,90.30
2023-04-16T18:31:07.807Z,90.68
2023-04-16T18:33:54.107Z,90.81
2023-04-16T18:36:22.715Z,90.99
2023-04-16T18:39:00.860Z,91.08
2023-04-16T18:41:38.174Z,91.36
2023-04-16T18:44:06.548Z,91.51
2023-04-16T18:46:33.629Z,91.66
2023-04-16T18:49:00.598Z,92.14
2023-04-16T18:51:27.632Z,92.05
2023-04-16T18:53:55.335Z,91.65
2023-04-16T18:56:22.165Z,91.88
2023-04-16T18:58:49.480Z,91.81
2023-04-16T19:01:16.857Z,92.23
2023-04-16T19:03:45.525Z,92.58
2023-04-16T19:06:13.919Z,92.65
2023-04-16T19:08:40.881Z,92.86
2023-04-16T19:11:07.829Z,93.41
2023-04-16T19:13:34.509Z,93.17
2023-04-16T19:16:05.926Z,93.86
2023-04-16T19:18:32.672Z,94.24
2023-04-16T19:21:00.874Z,94.14
2023-04-16T19:23:28.859Z,94.26
2023-04-16T19:25:56.667Z,94.44
2023-04-16T19:28:23.960Z,94.54
2023-04-16T19:30:51.375Z,95.19
2023-04-16T19:33:18.770Z,95.23
2023-04-16T19:35:47.233Z,95.32
2023-04-16T19:38:14.398Z,95.69
2023-04-16T19:40:44.333Z,95.87
2023-04-16T19:43:11.090Z,96.25
2023-04-16T19:45:43.175Z,96.75
2023-04-16T19:48:10.078Z,96.61
2023-04-16T19:50:41.187Z,97.07
2023-04-16T19:53:09.042Z,97.28
2023-04-16T19:55:35.825Z,97.25
2023-04-16T19:58:06.199Z,97.47
2023-04-16T20:00:34.149Z,97.64
2023-04-16T20:03:00.728Z,98.03
2023-04-16T20:05:27.509Z,98.25
2023-04-16T20:07:54.432Z,98.63
2023-04-16T20:10:21.372Z,98.69
2023-04-16T20:12:49.053Z,98.94
2023-04-16T20:15:17.086Z,98.38
2023-04-16T20:17:44.062Z,98.92
2023-04-16T20:20:11.225Z,98.90
2023-04-16T20:22:39.492Z,99.25
2023-04-16T20:25:07.453Z,99.42
2023-04-16T20:27:34.588Z,99.36
2023-04-16T20:30:02.221Z,99.38
2023-04-16T20:32:29.464Z,99.28
2023-04-16T20:34:56.329Z,99.25
2023-04-16T20:37:22.951Z,99.59
2023-04-16T20:39:54.119Z,99.58
2023-04-16T20:42:22.597Z,99.28
2023-04-16T20:44:56.154Z,99.85
2023-04-16T20:47:22.918Z,99.63
2023-04-16T20:49:49.851Z,100.00
2023-04-16T20:52:16.760Z,100.00
2023-04-16T20:54:43.882Z,100.00
2023-04-16T20:57:10.876Z,100.00
2023-04-16T20:59:37.728Z,100.00
2023-04-16T21:02:04.663Z,100.00
2023-04-16T21:04:31.571Z,100.00
2023-04-16T21:06:58.272Z,100.00
2023-04-16T21:09:24.938Z,100.00
2023-04-16T21:11:51.490Z,100.00
2023-04-16T21:14:19.115Z,100.00
2023-04-16T21:16:45.845Z,100.00
2023-04-16T21:19:13.649Z,100.00
2023-04-16T21:21:45.420Z,100.00
2023-04-16T21:24:12.526Z,100.00
2023-04-16T21:26:40.186Z,100.00
2023-04-16T21:29:08.534Z,100.00
2023-04-16T21:31:35.379Z,100.00
2023-04-16T21:34:03.232Z,100.00
2023-04-16T21:36:35.006Z,100.00
2023-04-16T21:39:07.143Z,100.00
2023-04-16T21:41:38.267Z,100.00
2023-04-16T21:44:06.155Z,100.00
2023-04-16T21:46:32.924Z,100.00
2023-04-16T21:48:59.755Z,100.00
2023-04-16T21:51:29.708Z,100.00
2023-04-16T21:53:56.574Z,100.00
2023-04-16T21:56:27.013Z,100.00
2023-04-16T21:58:53.642Z,100.00
2023-04-16T22:01:22.263Z,100.00
2023-04-16T22:03:51.791Z,100.00
2023-04-16T22:06:20.280Z,100.00
2023-04-16T22:08:47.072Z,100.00
2023-04-16T22:11:13.737Z,100.00
2023-04-16T22:13:42.264Z,100.00
2023-04-16T22:16:11.537Z,100.00
2023-04-16T22:18:38.680Z,100.00
2023-04-16T22:21:05.347Z,100.00
2023-04-16T22:23:32.047Z,100.00
2023-04-16T22:25:58.701Z,100.00
2023-04-16T22:28:25.280Z,100.00
2023-04-16T22:30:51.943Z,100.00
2023-04-16T22:33:20.247Z,100.00
2023-04-16T22:35:46.888Z,100.00
2023-04-16T22:38:13.507Z,100.00
2023-04-16T22:40:40.373Z,100.00
2023-04-16T22:43:06.956Z,100.00
2023-04-16T22:45:40.965Z,100.00
2023-04-16T22:48:07.759Z,100.00
2023-04-16T22:50:34.417Z,100.00
2023-04-16T22:53:00.986Z,100.00
2023-04-16T22:55:27.598Z,100.00
2023-04-16T22:57:54.204Z,100.00
2023-04-16T23:00:21.110Z,100.00
2023-04-16T23:02:47.875Z,100.00
2023-04-16T23:05:14.572Z,100.00
2023-04-16T23:07:41.244Z,100.00
2023-04-16T23:10:08.548Z,100.00
2023-04-16T23:12:37.313Z,100.00
2023-04-16T23:15:06.628Z,100.00
2023-04-16T23:17:35.006Z,100.00
2023-04-16T23:20:02.083Z,100.00
2023-04-16T23:22:28.744Z,100.00
2023-04-16T23:24:55.557Z,100.00
2023-04-16T23:27:22.151Z,100.00
2023-04-16T23:29:48.785Z,100.00
2023-04-16T23:32:15.359Z,100.00
2023-04-16T23:34:42.144Z,100.00
2023-04-16T23:37:09.975Z,100.00
2023-04-16T23:39:36.664Z,100.00
2023-04-16T23:42:03.604Z,100.00
2023-04-16T23:44:30.545Z,100.00
2023-04-16T23:46:57.257Z,100.00
2023-04-16T23:49:24.070Z,100.00
2023-04-16T23:51:54.103Z,100.00
2023-04-16T23:54:21.312Z,100.00
2023-04-16T23:56:48.021Z,100.00
2023-04-16T23:59:16.856Z,100.00
